Esquel, Argentina
Current Conditions -  °F | °C
As of 5:00 AM on Saturday 20 Dec 2014 (Local Time) from SCAP Reporting Station
Overcast Overcast  
Wind Chill: 36°   Ceiling: 1300
Heat Index: 39°   Visibility: NA
Dew Point: 34°   Wind: 5mph
Humidity: 81%   Direction: 220°SW
Pressure: 29.97"   Gusts: NA
Location:  42.91°S, 71.32°W
Report Text: SCAP 200800Z AUTO 22004KT 140V300 //// // OVC013 04/01 Q1015
Loading
Personal Weather Stations






























Interactive Weather Map New forecast layout! Learn more

10-Day Weather Forecast

Advertisements
Track Severe Weather on mobile